Time,TemperatureF,DewpointF,PressureIn,WindDirection,WindDirectionDegrees,WindSpeedMPH,WindSpeedGustMPH,Humidity,HourlyPrecipIn,Conditions,Clouds,dailyrainin,SoftwareType,DateUTC
2013-08-01 00:00:00,67.3,64.9,29.94,East,93,0.0,1.0,92,0.00,,,0.00,Wunderground v.1.13,2013-08-01 04:00:00,
2013-08-01 00:05:00,67.3,64.9,29.94,East,93,0.0,0.0,92,0.00,,,0.00,Wunderground v.1.13,2013-08-01 04:05:00,
2013-08-01 00:10:00,67.4,65.0,29.93,East,93,0.0,0.0,92,0.00,,,0.00,Wunderground v.1.13,2013-08-01 04:10:00,
2013-08-01 00:15:00,67.4,65.0,29.93,East,92,0.0,0.0,92,0.00,,,0.00,Wunderground v.1.13,2013-08-01 04:15:00,
2013-08-01 00:20:00,67.4,65.0,29.93,East,93,0.0,0.0,92,0.00,,,0.00,Wunderground v.1.13,2013-08-01 04:20:00,
2013-08-01 00:25:00,67.4,65.0,29.93,East,92,0.0,0.0,92,0.00,,,0.00,Wunderground v.1.13,2013-08-01 04:25:00,
2013-08-01 00:30:00,67.4,65.0,29.93,East,93,0.0,0.0,92,0.00,,,0.00,Wunderground v.1.13,2013-08-01 04:30:00,
2013-08-01 00:35:00,67.4,65.0,29.93,East,93,0.0,0.0,92,0.00,,,0.00,Wunderground v.1.13,2013-08-01 04:35:00,
2013-08-01 00:45:00,67.3,64.9,29.93,East,93,0.0,0.0,92,0.00,,,0.00,Wunderground v.1.13,2013-08-01 04:45:00,
2013-08-01 00:50:00,67.3,64.9,29.93,East,92,0.0,0.0,92,0.00,,,0.00,Wunderground v.1.13,2013-08-01 04:50:00,
2013-08-01 01:00:00,67.3,65.2,29.92,East,93,0.0,0.0,93,0.00,,,0.00,Wunderground v.1.13,2013-08-01 05:00:00,
2013-08-01 01:05:00,67.3,65.2,29.92,East,92,0.0,0.0,93,0.00,,,0.00,Wunderground v.1.13,2013-08-01 05:05:00,
2013-08-01 01:15:00,67.3,65.2,29.92,East,93,0.0,0.0,93,0.00,,,0.00,Wunderground v.1.13,2013-08-01 05:15:00,
2013-08-01 01:20:00,67.2,65.1,29.92,East,93,0.0,0.0,93,0.00,,,0.00,Wunderground v.1.13,2013-08-01 05:20:00,
2013-08-01 01:30:00,67.2,65.1,29.91,East,93,0.0,0.0,93,0.00,,,0.00,Wunderground v.1.13,2013-08-01 05:30:00,
2013-08-01 01:40:00,67.3,65.2,29.91,East,92,0.0,0.0,93,0.00,,,0.00,Wunderground v.1.13,2013-08-01 05:40:00,
2013-08-01 01:45:00,67.2,65.1,29.91,East,93,0.0,0.0,93,0.00,,,0.00,Wunderground v.1.13,2013-08-01 05:45:00,
2013-08-01 01:50:00,67.2,65.1,29.91,East,93,0.0,0.0,93,0.00,,,0.00,Wunderground v.1.13,2013-08-01 05:50:00,
2013-08-01 02:00:00,67.2,65.1,29.90,East,93,0.0,1.0,93,0.00,,,0.00,Wunderground v.1.13,2013-08-01 06:00:00,
2013-08-01 02:05:00,67.2,65.1,29.90,East,93,0.0,1.0,93,0.00,,,0.00,Wunderground v.1.13,2013-08-01 06:05:00,
2013-08-01 02:15:00,67.1,65.0,29.89,East,92,0.0,1.0,93,0.00,,,0.00,Wunderground v.1.13,2013-08-01 06:15:00,
2013-08-01 02:20:00,67.1,65.0,29.89,East,92,0.0,1.0,93,0.00,,,0.00,Wunderground v.1.13,2013-08-01 06:20:00,
2013-08-01 02:25:00,67.0,64.9,29.89,East,93,0.0,1.0,93,0.00,,,0.00,Wunderground v.1.13,2013-08-01 06:25:00,
2013-08-01 02:35:00,67.0,64.9,29.89,East,92,0.0,1.0,93,0.00,,,0.00,Wunderground v.1.13,2013-08-01 06:35:00,
2013-08-01 02:40:00,67.0,64.9,29.89,East,93,0.0,1.0,93,0.00,,,0.00,Wunderground v.1.13,2013-08-01 06:40:00,
2013-08-01 02:50:00,67.0,64.9,29.88,East,93,0.0,1.0,93,0.00,,,0.00,Wunderground v.1.13,2013-08-01 06:50:00,
2013-08-01 02:55:00,66.9,64.8,29.88,East,92,0.0,1.0,93,0.00,,,0.00,Wunderground v.1.13,2013-08-01 06:55:00,
2013-08-01 03:05:00,66.9,64.8,29.88,East,92,0.0,0.0,93,0.00,,,0.00,Wunderground v.1.13,2013-08-01 07:05:00,
2013-08-01 03:15:00,66.8,64.7,29.88,East,93,0.0,0.0,93,0.00,,,0.00,Wunderground v.1.13,2013-08-01 07:15:00,
2013-08-01 03:20:00,66.8,64.7,29.87,East,92,0.0,0.0,93,0.00,,,0.00,Wunderground v.1.13,2013-08-01 07:20:00,
2013-08-01 03:25:00,66.7,64.6,29.87,East,92,0.0,0.0,93,0.00,,,0.00,Wunderground v.1.13,2013-08-01 07:25:00,
2013-08-01 03:35:00,66.6,64.5,29.87,East,93,0.0,0.0,93,0.00,,,0.00,Wunderground v.1.13,2013-08-01 07:35:00,
2013-08-01 03:40:00,66.6,64.5,29.87,East,93,0.0,0.0,93,0.00,,,0.00,Wunderground v.1.13,2013-08-01 07:40:00,
2013-08-01 03:50:00,66.6,64.8,29.87,East,93,0.0,0.0,94,0.00,,,0.00,Wunderground v.1.13,2013-08-01 07:50:00,
2013-08-01 03:55:00,66.6,64.8,29.87,East,93,0.0,0.0,94,0.00,,,0.00,Wunderground v.1.13,2013-08-01 07:55:00,
2013-08-01 04:05:00,66.7,64.9,29.87,East,93,0.0,0.0,94,0.00,,,0.00,Wunderground v.1.13,2013-08-01 08:05:00,
2013-08-01 04:15:00,66.6,64.8,29.86,East,93,0.0,0.0,94,0.00,,,0.00,Wunderground v.1.13,2013-08-01 08:15:00,
2013-08-01 04:30:00,66.7,64.9,29.86,East,93,0.0,0.0,94,0.00,,,0.00,Wunderground v.1.13,2013-08-01 08:30:00,
2013-08-01 04:40:00,66.7,64.9,29.86,East,93,0.0,0.0,94,0.00,,,0.00,Wunderground v.1.13,2013-08-01 08:40:00,
2013-08-01 04:45:00,66.7,64.9,29.86,East,93,0.0,0.0,94,0.00,,,0.00,Wunderground v.1.13,2013-08-01 08:45:00,
2013-08-01 04:55:00,66.7,64.9,29.85,East,92,0.0,0.0,94,0.00,,,0.00,Wunderground v.1.13,2013-08-01 08:55:00,
2013-08-01 05:05:00,66.6,64.8,29.86,East,93,0.0,0.0,94,0.00,,,0.00,Wunderground v.1.13,2013-08-01 09:05:00,
2013-08-01 05:15:00,66.5,64.7,29.85,East,93,0.0,0.0,94,0.00,,,0.00,Wunderground v.1.13,2013-08-01 09:15:00,
2013-08-01 05:20:00,66.6,64.8,29.85,East,92,0.0,0.0,94,0.00,,,0.00,Wunderground v.1.13,2013-08-01 09:20:00,
2013-08-01 05:35:00,66.5,64.7,29.86,East,93,0.0,0.0,94,0.00,,,0.00,Wunderground v.1.13,2013-08-01 09:35:00,
2013-08-01 05:40:00,66.5,64.7,29.85,East,93,0.0,0.0,94,0.00,,,0.00,Wunderground v.1.13,2013-08-01 09:40:00,
2013-08-01 05:55:00,66.6,64.8,29.85,East,93,0.0,0.0,94,0.00,,,0.00,Wunderground v.1.13,2013-08-01 09:55:00,
2013-08-01 06:05:00,66.6,64.8,29.85,East,93,0.0,0.0,94,0.00,,,0.00,Wunderground v.1.13,2013-08-01 10:05:00,
2013-08-01 06:25:00,66.6,64.8,29.85,East,93,0.0,0.0,94,0.00,,,0.00,Wunderground v.1.13,2013-08-01 10:25:00,
2013-08-01 06:35:00,66.7,64.9,29.85,East,92,0.0,0.0,94,0.00,,,0.00,Wunderground v.1.13,2013-08-01 10:35:00,
2013-08-01 06:45:00,66.7,64.9,29.85,East,94,0.0,0.0,94,0.00,,,0.00,Wunderground v.1.13,2013-08-01 10:45:00,
2013-08-01 06:55:00,66.7,64.9,29.85,East,94,0.0,0.0,94,0.00,,,0.00,Wunderground v.1.13,2013-08-01 10:55:00,
2013-08-01 07:05:00,66.7,64.9,29.86,East,94,0.0,0.0,94,0.00,,,0.00,Wunderground v.1.13,2013-08-01 11:05:00,
2013-08-01 07:20:00,66.8,65.0,29.86,East,94,0.0,0.0,94,0.00,,,0.00,Wunderground v.1.13,2013-08-01 11:20:00,
2013-08-01 07:30:00,67.0,65.2,29.86,East,94,0.0,0.0,94,0.00,,,0.00,Wunderground v.1.13,2013-08-01 11:30:00,
2013-08-01 07:40:00,67.0,65.2,29.86,East,94,0.0,0.0,94,0.00,,,0.00,Wunderground v.1.13,2013-08-01 11:40:00,
2013-08-01 07:55:00,67.0,65.5,29.86,East,94,0.0,0.0,95,0.00,,,0.00,Wunderground v.1.13,2013-08-01 11:55:00,
2013-08-01 08:05:00,67.0,65.5,29.86,East,95,0.0,2.0,95,0.00,,,0.00,Wunderground v.1.13,2013-08-01 12:05:00,
2013-08-01 08:20:00,67.0,65.5,29.87,SSW,207,1.0,1.0,95,0.00,,,0.00,Wunderground v.1.13,2013-08-01 12:20:00,
2013-08-01 08:25:00,67.0,65.5,29.87,SSW,208,1.0,2.0,95,0.00,,,0.00,Wunderground v.1.13,2013-08-01 12:25:00,
2013-08-01 08:35:00,67.1,65.6,29.87,SSW,208,0.0,2.0,95,0.00,,,0.00,Wunderground v.1.13,2013-08-01 12:35:00,
2013-08-01 08:40:00,67.2,65.7,29.87,WNW,292,0.0,2.0,95,0.00,,,0.00,Wunderground v.1.13,2013-08-01 12:40:00,
2013-08-01 08:45:00,67.2,65.7,29.87,WNW,292,1.0,1.0,95,0.00,,,0.00,Wunderground v.1.13,2013-08-01 12:45:00,
2013-08-01 08:55:00,67.3,65.8,29.87,WNW,291,0.0,2.0,95,0.00,,,0.00,Wunderground v.1.13,2013-08-01 12:55:00,
2013-08-01 09:10:00,67.7,66.2,29.87,West,281,0.0,1.0,95,0.00,,,0.00,Wunderground v.1.13,2013-08-01 13:10:00,
2013-08-01 09:20:00,67.9,66.4,29.87,WNW,282,0.0,1.0,95,0.00,,,0.00,Wunderground v.1.13,2013-08-01 13:20:00,
2013-08-01 09:35:00,68.1,66.6,29.87,West,280,1.0,1.0,95,0.00,,,0.00,Wunderground v.1.13,2013-08-01 13:35:00,
2013-08-01 09:50:00,68.4,66.9,29.86,West,281,0.0,1.0,95,0.00,,,0.00,Wunderground v.1.13,2013-08-01 13:50:00,
2013-08-01 09:55:00,68.6,67.1,29.86,West,279,0.0,1.0,95,0.00,,,0.00,Wunderground v.1.13,2013-08-01 13:55:00,
2013-08-01 10:00:00,69.0,67.5,29.86,West,279,0.0,1.0,95,0.00,,,0.00,Wunderground v.1.13,2013-08-01 14:00:00,
2013-08-01 10:10:00,69.5,68.0,29.86,West,279,0.0,1.0,95,0.00,,,0.00,Wunderground v.1.13,2013-08-01 14:10:00,
2013-08-01 10:20:00,69.7,67.9,29.86,SW,232,0.0,1.0,94,0.00,,,0.00,Wunderground v.1.13,2013-08-01 14:20:00,
2013-08-01 10:40:00,70.4,68.0,29.86,East,79,0.0,3.0,92,0.00,,,0.00,Wunderground v.1.13,2013-08-01 14:40:00,
2013-08-01 10:55:00,71.0,67.9,29.86,South,179,0.0,1.0,90,0.00,,,0.00,Wunderground v.1.13,2013-08-01 14:55:00,
2013-08-01 11:05:00,71.3,67.9,29.86,SSW,195,1.0,5.0,89,0.00,,,0.00,Wunderground v.1.13,2013-08-01 15:05:00,
2013-08-01 11:15:00,71.3,67.6,29.86,SW,227,2.0,2.0,88,0.00,,,0.00,Wunderground v.1.13,2013-08-01 15:15:00,
2013-08-01 11:25:00,71.7,68.0,29.86,WSW,244,2.0,7.0,88,0.00,,,0.00,Wunderground v.1.13,2013-08-01 15:25:00,
2013-08-01 11:30:00,72.1,68.3,29.86,SW,230,1.0,5.0,88,0.00,,,0.00,Wunderground v.1.13,2013-08-01 15:30:00,
2013-08-01 11:35:00,72.5,68.7,29.86,WSW,244,1.0,1.0,88,0.00,,,0.00,Wunderground v.1.13,2013-08-01 15:35:00,
2013-08-01 11:55:00,73.3,67.5,29.86,West,275,2.0,5.0,82,0.00,,,0.00,Wunderground v.1.13,2013-08-01 15:55:00,
2013-08-01 12:05:00,74.0,68.2,29.86,SSE,163,2.0,2.0,82,0.00,,,0.00,Wunderground v.1.13,2013-08-01 16:05:00,
2013-08-01 12:20:00,74.5,67.6,29.86,WNW,283,3.0,3.0,79,0.00,,,0.00,Wunderground v.1.13,2013-08-01 16:20:00,
2013-08-01 12:30:00,74.8,68.2,29.86,WSW,256,1.0,8.0,80,0.00,,,0.00,Wunderground v.1.13,2013-08-01 16:30:00,
2013-08-01 12:35:00,75.0,67.7,29.86,WSW,243,1.0,1.0,78,0.00,,,0.00,Wunderground v.1.13,2013-08-01 16:35:00,
2013-08-01 12:45:00,75.4,68.1,29.86,WNW,284,2.0,8.0,78,0.00,,,0.00,Wunderground v.1.13,2013-08-01 16:45:00,
2013-08-01 12:55:00,76.7,68.2,29.85,South,182,2.0,2.0,75,0.00,,,0.00,Wunderground v.1.13,2013-08-01 16:55:00,
2013-08-01 13:00:00,76.9,68.0,29.86,West,268,3.0,8.0,74,0.00,,,0.00,Wunderground v.1.13,2013-08-01 17:00:00,
2013-08-01 13:10:00,76.2,66.9,29.85,NW,317,4.0,9.0,73,0.00,,,0.00,Wunderground v.1.13,2013-08-01 17:10:00,
2013-08-01 13:25:00,77.2,68.3,29.85,SW,217,3.0,9.0,74,0.00,,,0.00,Wunderground v.1.13,2013-08-01 17:25:00,
2013-08-01 13:30:00,77.6,67.4,29.85,South,187,3.0,9.0,71,0.00,,,0.00,Wunderground v.1.13,2013-08-01 17:30:00,
2013-08-01 13:40:00,78.2,68.0,29.85,NNW,327,3.0,3.0,71,0.00,,,0.00,Wunderground v.1.13,2013-08-01 17:40:00,
2013-08-01 13:45:00,78.3,68.1,29.84,WSW,244,3.0,3.0,71,0.00,,,0.00,Wunderground v.1.13,2013-08-01 17:45:00,
2013-08-01 13:55:00,78.3,67.7,29.84,SE,126,3.0,3.0,70,0.00,,,0.00,Wunderground v.1.13,2013-08-01 17:55:00,
2013-08-01 14:05:00,78.0,67.4,29.84,SE,145,1.0,3.0,70,0.00,,,0.00,Wunderground v.1.13,2013-08-01 18:05:00,
2013-08-01 14:20:00,78.4,67.8,29.84,SE,144,2.0,2.0,70,0.00,,,0.00,Wunderground v.1.13,2013-08-01 18:20:00,
2013-08-01 14:25:00,78.0,67.4,29.84,South,190,1.0,1.0,70,0.00,,,0.00,Wunderground v.1.13,2013-08-01 18:25:00,
2013-08-01 14:35:00,78.3,66.9,29.84,SE,142,2.0,4.0,68,0.00,,,0.00,Wunderground v.1.13,2013-08-01 18:35:00,
2013-08-01 14:40:00,78.5,67.1,29.84,SSW,211,2.0,5.0,68,0.00,,,0.00,Wunderground v.1.13,2013-08-01 18:40:00,
2013-08-01 14:50:00,79.0,67.1,29.84,WSW,250,3.0,6.0,67,0.00,,,0.00,Wunderground v.1.13,2013-08-01 18:50:00,
2013-08-01 15:05:00,79.9,68.0,29.83,SSE,165,2.0,2.0,67,0.00,,,0.00,Wunderground v.1.13,2013-08-01 19:05:00,
2013-08-01 15:15:00,79.6,66.8,29.84,SE,146,1.0,1.0,65,0.00,,,0.00,Wunderground v.1.13,2013-08-01 19:15:00,
2013-08-01 15:20:00,79.3,68.7,29.84,East,90,1.0,6.0,70,0.00,,,0.00,Wunderground v.1.13,2013-08-01 19:20:00,
2013-08-01 15:35:00,79.1,66.3,29.83,SSW,201,2.0,2.0,65,0.00,,,0.00,Wunderground v.1.13,2013-08-01 19:35:00,
2013-08-01 15:45:00,79.1,66.3,29.83,WNW,293,3.0,6.0,65,0.00,,,0.00,Wunderground v.1.13,2013-08-01 19:45:00,
2013-08-01 15:55:00,80.3,67.0,29.83,SSW,207,2.0,6.0,64,0.00,,,0.00,Wunderground v.1.13,2013-08-01 19:55:00,
2013-08-01 16:20:00,80.7,67.8,29.83,South,171,1.0,7.0,65,0.00,,,0.00,Wunderground v.1.13,2013-08-01 20:20:00,
2013-08-01 16:25:00,80.5,66.3,29.83,SSE,164,2.0,2.0,62,0.00,,,0.00,Wunderground v.1.13,2013-08-01 20:25:00,
2013-08-01 16:35:00,80.1,66.8,29.83,South,173,3.0,3.0,64,0.00,,,0.00,Wunderground v.1.13,2013-08-01 20:35:00,
2013-08-01 16:45:00,80.8,67.5,29.82,SSW,202,1.0,7.0,64,0.00,,,0.00,Wunderground v.1.13,2013-08-01 20:45:00,
2013-08-01 16:50:00,80.4,66.6,29.82,SW,215,2.0,7.0,63,0.00,,,0.00,Wunderground v.1.13,2013-08-01 20:50:00,
2013-08-01 17:00:00,79.7,65.5,29.82,SSE,156,2.0,2.0,62,0.00,,,0.00,Wunderground v.1.13,2013-08-01 21:00:00,
2013-08-01 17:05:00,79.9,68.8,29.82,SE,144,1.0,3.0,69,0.00,,,0.00,Wunderground v.1.13,2013-08-01 21:05:00,
2013-08-01 17:10:00,80.0,67.2,29.82,SE,144,1.0,1.0,65,0.00,,,0.00,Wunderground v.1.13,2013-08-01 21:10:00,
2013-08-01 17:15:00,79.8,66.1,29.82,SE,137,1.0,3.0,63,0.00,,,0.00,Wunderground v.1.13,2013-08-01 21:15:00,
2013-08-01 17:25:00,80.2,68.7,29.82,SW,230,1.0,3.0,68,0.00,,,0.00,Wunderground v.1.13,2013-08-01 21:25:00,
2013-08-01 17:30:00,80.5,66.3,29.82,SW,218,2.0,3.0,62,0.00,,,0.00,Wunderground v.1.13,2013-08-01 21:30:00,
2013-08-01 17:35:00,80.3,66.1,29.82,SSE,153,3.0,3.0,62,0.00,,,0.00,Wunderground v.1.13,2013-08-01 21:35:00,
2013-08-01 17:40:00,80.3,67.5,29.83,SSE,167,3.0,3.0,65,0.00,,,0.00,Wunderground v.1.13,2013-08-01 21:40:00,
2013-08-01 17:50:00,80.6,68.2,29.83,West,265,1.0,1.0,66,0.00,,,0.00,Wunderground v.1.13,2013-08-01 21:50:00,
2013-08-01 17:55:00,80.1,66.8,29.82,SE,128,1.0,3.0,64,0.00,,,0.00,Wunderground v.1.13,2013-08-01 21:55:00,
2013-08-01 18:05:00,79.4,67.9,29.83,SE,128,0.0,2.0,68,0.00,,,0.00,Wunderground v.1.13,2013-08-01 22:05:00,
2013-08-01 18:15:00,79.9,68.4,29.83,SE,128,1.0,2.0,68,0.00,,,0.00,Wunderground v.1.13,2013-08-01 22:15:00,
2013-08-01 18:25:00,79.8,68.3,29.83,SE,128,1.0,2.0,68,0.00,,,0.00,Wunderground v.1.13,2013-08-01 22:25:00,
2013-08-01 18:35:00,79.0,67.5,29.83,WNW,297,1.0,1.0,68,0.00,,,0.00,Wunderground v.1.13,2013-08-01 22:35:00,
2013-08-01 18:50:00,78.6,68.0,29.84,SSW,200,0.0,2.0,70,0.00,,,0.00,Wunderground v.1.13,2013-08-01 22:50:00,
2013-08-01 18:55:00,78.3,67.3,29.84,SSW,200,0.0,2.0,69,0.00,,,0.00,Wunderground v.1.13,2013-08-01 22:55:00,
2013-08-01 19:15:00,77.9,67.3,29.84,SSW,200,0.0,2.0,70,0.00,,,0.00,Wunderground v.1.13,2013-08-01 23:15:00,
2013-08-01 19:25:00,76.8,67.1,29.84,SSW,200,0.0,2.0,72,0.00,,,0.00,Wunderground v.1.13,2013-08-01 23:25:00,
2013-08-01 19:35:00,75.5,65.8,29.84,SSW,200,1.0,2.0,72,0.00,,,0.00,Wunderground v.1.13,2013-08-01 23:35:00,
2013-08-01 19:45:00,74.6,65.8,29.84,SSW,200,0.0,2.0,74,0.00,,,0.00,Wunderground v.1.13,2013-08-01 23:45:00,
2013-08-01 19:55:00,74.2,66.1,29.85,SSW,200,0.0,2.0,76,0.00,,,0.00,Wunderground v.1.13,2013-08-01 23:55:00,
2013-08-01 20:05:00,74.1,65.7,29.85,SSW,200,0.0,2.0,75,0.00,,,0.00,Wunderground v.1.13,2013-08-02 00:05:00,
2013-08-01 20:20:00,73.8,65.4,29.85,SSW,200,0.0,2.0,75,0.00,,,0.00,Wunderground v.1.13,2013-08-02 00:20:00,
2013-08-01 20:30:00,73.4,65.4,29.85,SSW,200,0.0,2.0,76,0.00,,,0.00,Wunderground v.1.13,2013-08-02 00:30:00,
2013-08-01 20:35:00,73.1,65.5,29.85,SSW,200,0.0,2.0,77,0.00,,,0.00,Wunderground v.1.13,2013-08-02 00:35:00,
2013-08-01 20:45:00,72.4,64.8,29.86,SSW,200,0.0,2.0,77,0.00,,,0.00,Wunderground v.1.13,2013-08-02 00:45:00,
2013-08-01 20:55:00,71.6,64.7,29.86,SSW,200,0.0,2.0,79,0.00,,,0.00,Wunderground v.1.13,2013-08-02 00:55:00,
2013-08-01 21:00:00,71.3,64.8,29.86,SSW,200,0.0,2.0,80,0.00,,,0.00,Wunderground v.1.13,2013-08-02 01:00:00,
2013-08-01 21:05:00,71.2,64.7,29.86,SSW,200,0.0,0.0,80,0.00,,,0.00,Wunderground v.1.13,2013-08-02 01:05:00,
2013-08-01 21:15:00,70.9,64.8,29.86,SSW,200,0.0,0.0,81,0.00,,,0.00,Wunderground v.1.13,2013-08-02 01:15:00,
2013-08-01 21:25:00,70.3,64.2,29.86,SSW,200,0.0,0.0,81,0.00,,,0.00,Wunderground v.1.13,2013-08-02 01:25:00,
2013-08-01 21:45:00,69.5,64.1,29.87,SSW,200,0.0,0.0,83,0.00,,,0.00,Wunderground v.1.13,2013-08-02 01:45:00,
2013-08-01 21:50:00,69.4,64.4,29.87,SSW,200,0.0,0.0,84,0.00,,,0.00,Wunderground v.1.13,2013-08-02 01:50:00,
2013-08-01 21:55:00,69.4,64.4,29.87,SSW,200,0.0,0.0,84,0.00,,,0.00,Wunderground v.1.13,2013-08-02 01:55:00,
2013-08-01 22:05:00,69.2,64.5,29.87,SSW,200,0.0,0.0,85,0.00,,,0.00,Wunderground v.1.13,2013-08-02 02:05:00,
2013-08-01 22:20:00,68.8,64.1,29.88,SSW,200,0.0,0.0,85,0.00,,,0.00,Wunderground v.1.13,2013-08-02 02:20:00,
2013-08-01 22:25:00,68.7,64.0,29.88,SSW,200,0.0,0.0,85,0.00,,,0.00,Wunderground v.1.13,2013-08-02 02:25:00,
2013-08-01 22:30:00,68.8,64.4,29.88,SSW,200,0.0,0.0,86,0.00,,,0.00,Wunderground v.1.13,2013-08-02 02:30:00,
2013-08-01 22:40:00,68.8,64.4,29.88,SSW,200,0.0,0.0,86,0.00,,,0.00,Wunderground v.1.13,2013-08-02 02:40:00,
2013-08-01 22:50:00,68.8,64.4,29.88,SSW,200,0.0,0.0,86,0.00,,,0.00,Wunderground v.1.13,2013-08-02 02:50:00,
2013-08-01 22:55:00,68.8,64.8,29.88,SSW,200,0.0,0.0,87,0.00,,,0.00,Wunderground v.1.13,2013-08-02 02:55:00,
2013-08-01 23:05:00,68.4,64.4,29.89,SSW,200,0.0,0.0,87,0.00,,,0.00,Wunderground v.1.13,2013-08-02 03:05:00,
2013-08-01 23:15:00,68.1,64.1,29.89,SSW,200,0.0,0.0,87,0.00,,,0.00,Wunderground v.1.13,2013-08-02 03:15:00,
2013-08-01 23:25:00,67.9,63.9,29.89,SSW,200,0.0,0.0,87,0.00,,,0.00,Wunderground v.1.13,2013-08-02 03:25:00,
2013-08-01 23:30:00,67.7,63.7,29.89,SSW,200,0.0,0.0,87,0.00,,,0.00,Wunderground v.1.13,2013-08-02 03:30:00,
2013-08-01 23:45:00,67.1,63.1,29.89,SSW,200,0.0,0.0,87,0.00,,,0.00,Wunderground v.1.13,2013-08-02 03:45:00,
2013-08-01 23:50:00,66.9,62.9,29.89,SSW,200,0.0,0.0,87,0.00,,,0.00,Wunderground v.1.13,2013-08-02 03:50:00,
2013-08-01 23:55:00,66.8,63.1,29.89,SSW,200,0.0,0.0,88,0.00,,,0.00,Wunderground v.1.13,2013-08-02 03:55:00,